Time;durP1;ratioP1;P1;durP2;ratioP2;P2;SDS_P1;SDS_P2;PMS_P1;PMS_P2;Temp;Humidity;BMP_temperature;BMP_pressure;BME280_temperature;BME280_humidity;BME280_pressure;Samples;Min_cycle;Max_cycle;Signal;HPM_P1;HPM_P2
2021/12/15 00:00:59;;;;;;;109.85;58.47;;;19.70;96.50;;;;;;4180286;28;20041;-69
2021/12/15 00:03:04;;;;;;;93.15;56.03;;;19.60;96.80;;;;;;4180084;28;20041;-69
2021/12/15 00:05:09;;;;;;;99.22;56.40;;;19.70;96.80;;;;;;4179852;28;20119;-70
2021/12/15 00:07:13;;;;;;;97.70;55.67;;;19.60;97.00;;;;;;4157211;28;20051;-71
2021/12/15 00:09:18;;;;;;;96.22;56.08;;;19.70;97.10;;;;;;4179997;28;20080;-71
2021/12/15 00:11:24;;;;;;;88.05;57.45;;;19.60;97.20;;;;;;4180412;28;20533;-71
2021/12/15 00:13:28;;;;;;;91.43;57.22;;;19.60;97.30;;;;;;4180108;28;20136;-71
2021/12/15 00:15:33;;;;;;;92.68;58.22;;;19.70;97.00;;;;;;4180035;28;20053;-72
2021/12/15 00:17:37;;;;;;;87.97;57.38;;;19.70;97.00;;;;;;4171278;28;20133;-70
2021/12/15 00:19:41;;;;;;;89.72;56.95;;;19.80;96.90;;;;;;4180006;28;20525;-70
2021/12/15 00:21:46;;;;;;;85.45;56.22;;;19.90;96.80;;;;;;4179958;28;20041;-70
2021/12/15 00:23:50;;;;;;;95.10;58.38;;;20.00;96.50;;;;;;4179765;28;20499;-70
2021/12/15 00:25:55;;;;;;;88.55;57.85;;;19.90;96.80;;;;;;4179930;28;20053;-69
2021/12/15 00:27:59;;;;;;;91.88;56.40;;;20.10;96.60;;;;;;4180593;28;20052;-70
2021/12/15 00:30:05;;;;;;;93.60;55.17;;;20.20;96.40;;;;;;4162314;28;20068;-70
2021/12/15 00:32:09;;;;;;;106.35;56.08;;;20.30;96.20;;;;;;4179954;28;20048;-70
2021/12/15 00:34:14;;;;;;;98.65;56.40;;;20.40;96.20;;;;;;4179637;28;20412;-69
2021/12/15 00:36:19;;;;;;;109.03;57.95;;;20.40;96.20;;;;;;4179935;28;20444;-69
2021/12/15 00:38:23;;;;;;;93.85;55.20;;;20.40;96.40;;;;;;4179661;28;20043;-70
2021/12/15 00:40:28;;;;;;;97.88;58.08;;;20.50;96.30;;;;;;4179594;28;20056;-70
2021/12/15 00:42:32;;;;;;;96.10;56.90;;;20.50;96.20;;;;;;4179280;28;20049;-71
2021/12/15 00:44:37;;;;;;;97.55;56.55;;;20.50;96.10;;;;;;4179377;28;20107;-66
2021/12/15 00:46:41;;;;;;;88.18;56.88;;;20.30;96.70;;;;;;4161163;28;20053;-71
2021/12/15 00:48:48;;;;;;;83.47;53.25;;;20.40;96.70;;;;;;4186150;28;20513;-69
2021/12/15 00:50:53;;;;;;;95.13;56.30;;;20.40;96.80;;;;;;4175229;28;20041;-68
2021/12/15 00:52:57;;;;;;;102.53;54.45;;;20.30;97.20;;;;;;4179513;28;20088;-69
2021/12/15 00:55:03;;;;;;;86.72;52.72;;;20.40;97.10;;;;;;4161634;28;20053;-69
2021/12/15 00:57:08;;;;;;;89.18;53.28;;;20.50;96.80;;;;;;4194996;28;20114;-70
2021/12/15 00:59:13;;;;;;;86.95;53.38;;;20.60;97.00;;;;;;4161599;28;20596;-71
2021/12/15 01:01:20;;;;;;;89.80;52.08;;;20.60;96.70;;;;;;4161627;28;20050;-69
2021/12/15 01:03:25;;;;;;;79.03;50.03;;;20.80;96.70;;;;;;4161797;28;20103;-71
2021/12/15 01:05:34;;;;;;;84.40;50.40;;;20.80;96.50;;;;;;4178916;28;20124;-70
2021/12/15 01:07:39;;;;;;;81.03;47.45;;;20.80;96.70;;;;;;4179816;28;20044;-71
2021/12/15 01:09:54;;;;;;;69.75;45.42;;;20.80;96.90;;;;;;4161512;28;20049;-71
2021/12/15 01:20:58;;;;;;;68.63;44.92;;;21.20;96.50;;;;;;4179797;28;20060;-69
2021/12/15 01:23:07;;;;;;;74.53;43.72;;;21.20;96.10;;;;;;4179784;28;20110;-69
2021/12/15 01:25:35;;;;;;;68.55;42.70;;;21.30;96.20;;;;;;4179901;28;20048;-69
2021/12/15 01:27:40;;;;;;;63.67;39.10;;;21.40;96.10;;;;;;4161500;28;20486;-69
2021/12/15 01:29:44;;;;;;;66.75;38.17;;;21.40;96.00;;;;;;4179124;28;20415;-70
2021/12/15 01:31:49;;;;;;;61.35;36.92;;;21.50;95.90;;;;;;4178734;28;20135;-70
2021/12/15 01:33:53;;;;;;;56.75;35.90;;;21.60;95.80;;;;;;4161506;28;20052;-69
2021/12/15 01:36:01;;;;;;;59.92;35.50;;;21.70;95.70;;;;;;4179087;28;20458;-70
2021/12/15 01:38:05;;;;;;;62.55;35.38;;;21.70;95.60;;;;;;4161314;28;20611;-71
2021/12/15 01:40:18;;;;;;;54.15;33.67;;;21.80;95.60;;;;;;4178796;28;20076;-69
2021/12/15 01:42:26;;;;;;;45.22;30.48;;;21.80;95.30;;;;;;4179226;28;20037;-70
2021/12/15 01:46:57;;;;;;;128.38;87.57;;;21.90;94.70;;;;;;4178650;28;20564;-70
2021/12/15 01:49:10;;;;;;;390.70;289.45;;;21.90;94.40;;;;;;4160969;28;20046;-71
2021/12/15 01:51:15;;;;;;;84.78;59.92;;;22.00;94.60;;;;;;4178919;28;20053;-71
2021/12/15 01:53:19;;;;;;;86.57;61.10;;;22.00;94.40;;;;;;4178338;28;20337;-72
2021/12/15 01:55:23;;;;;;;188.25;143.13;;;22.10;94.50;;;;;;4178283;28;20076;-72
2021/12/15 01:57:30;;;;;;;78.47;56.42;;;22.20;94.40;;;;;;4178289;28;20104;-72
2021/12/15 01:59:35;;;;;;;155.93;115.97;;;22.20;94.40;;;;;;4144561;28;20042;-71
2021/12/15 02:01:39;;;;;;;201.23;136.73;;;22.30;94.20;;;;;;4161200;28;20160;-71
2021/12/15 02:03:44;;;;;;;86.90;40.35;;;22.40;94.00;;;;;;4178532;28;20045;-73
2021/12/15 02:06:09;;;;;;;41.10;25.98;;;22.40;93.90;;;;;;4178630;28;20128;-74
2021/12/15 02:08:14;;;;;;;55.50;25.85;;;22.50;93.90;;;;;;4175959;28;20285;-76
2021/12/15 02:10:19;;;;;;;40.63;23.23;;;22.50;93.80;;;;;;4178606;28;20132;-72
2021/12/15 02:12:36;;;;;;;34.47;22.48;;;22.60;93.70;;;;;;4167309;28;20069;-73
2021/12/15 02:14:42;;;;;;;31.58;21.70;;;22.70;93.70;;;;;;4177020;28;20057;-73
2021/12/15 02:16:47;;;;;;;32.58;23.13;;;22.70;93.20;;;;;;4178377;28;20519;-74
2021/12/15 02:18:51;;;;;;;35.28;22.85;;;22.70;93.30;;;;;;4178550;28;20654;-75
2021/12/15 02:21:11;;;;;;;31.80;22.75;;;22.80;92.80;;;;;;4158204;28;20689;-74
2021/12/15 02:23:17;;;;;;;29.58;22.45;;;22.80;92.70;;;;;;4177854;28;20033;-73
2021/12/15 02:25:22;;;;;;;35.35;23.30;;;22.80;92.80;;;;;;4158243;28;20057;-73
2021/12/15 02:27:31;;;;;;;31.73;23.05;;;22.90;93.10;;;;;;4144336;28;20148;-74
2021/12/15 02:29:40;;;;;;;33.17;23.17;;;23.00;92.50;;;;;;4183902;28;20049;-74
2021/12/15 02:34:07;;;;;;;33.78;22.42;;;23.10;92.10;;;;;;4143807;28;20046;-74
2021/12/15 02:38:37;;;;;;;29.67;19.23;;;23.20;92.00;;;;;;4160867;28;20049;-76
2021/12/15 02:40:41;;;;;;;30.13;20.38;;;23.30;91.50;;;;;;4144280;28;20788;-74
2021/12/15 02:42:47;;;;;;;26.63;19.00;;;23.30;91.60;;;;;;4160763;28;20112;-74
2021/12/15 02:44:51;;;;;;;28.70;19.67;;;23.40;91.30;;;;;;4178249;28;20403;-73
2021/12/15 02:46:56;;;;;;;28.60;19.27;;;23.50;91.50;;;;;;4177919;28;20041;-74
2021/12/15 02:49:00;;;;;;;26.50;18.45;;;23.60;91.10;;;;;;4160503;28;20057;-73
2021/12/15 02:51:05;;;;;;;27.55;19.08;;;23.70;91.00;;;;;;4177121;28;20080;-73
2021/12/15 02:53:10;;;;;;;25.30;18.85;;;23.60;91.00;;;;;;4178288;28;20136;-76
2021/12/15 02:55:15;;;;;;;27.85;19.88;;;23.60;90.70;;;;;;4178235;28;20105;-75
2021/12/15 02:57:20;;;;;;;24.70;18.50;;;23.70;90.80;;;;;;4178135;28;20136;-72
2021/12/15 02:59:30;;;;;;;25.75;18.60;;;23.70;90.60;;;;;;4160470;28;20129;-73
2021/12/15 03:01:55;;;;;;;23.40;17.77;;;23.70;90.50;;;;;;4177134;28;20048;-75
2021/12/15 03:06:31;;;;;;;27.40;18.25;;;23.90;90.20;;;;;;4181291;28;20628;-74
2021/12/15 03:08:54;;;;;;;27.00;18.70;;;23.80;90.20;;;;;;4180608;28;20194;-73
2021/12/15 03:15:35;;;;;;;30.10;19.15;;;24.10;90.00;;;;;;4180408;28;20141;-72
2021/12/15 03:17:39;;;;;;;28.30;19.55;;;24.20;90.10;;;;;;4159741;28;20072;-73
2021/12/15 03:19:44;;;;;;;30.60;20.90;;;24.20;90.10;;;;;;4181554;28;20128;-73
2021/12/15 03:21:48;;;;;;;25.08;17.92;;;24.20;90.20;;;;;;4180104;28;20480;-74
2021/12/15 03:23:59;;;;;;;26.42;17.67;;;24.30;89.60;;;;;;4178221;28;20128;-73
2021/12/15 03:26:03;;;;;;;23.38;16.85;;;24.40;88.70;;;;;;4180901;28;20032;-73
2021/12/15 03:35:16;;;;;;;21.30;17.13;;;24.40;89.30;;;;;;4180729;28;20048;-74
2021/12/15 03:39:28;;;;;;;27.77;16.00;;;24.80;88.20;;;;;;4180089;28;20045;-73
2021/12/15 03:41:33;;;;;;;23.65;16.35;;;24.90;88.50;;;;;;4163277;28;20042;-72
2021/12/15 03:43:37;;;;;;;25.60;16.05;;;24.80;88.10;;;;;;4164264;28;20042;-71
2021/12/15 03:45:48;;;;;;;20.52;15.20;;;24.90;87.70;;;;;;4186259;28;20044;-72
2021/12/15 03:47:54;;;;;;;23.05;14.45;;;24.90;87.20;;;;;;4180602;28;20037;-73
2021/12/15 03:49:59;;;;;;;26.75;15.73;;;25.20;86.70;;;;;;4163330;28;20075;-71
2021/12/15 03:52:06;;;;;;;21.13;15.13;;;25.30;85.30;;;;;;4180572;28;20384;-71
2021/12/15 03:54:10;;;;;;;19.98;15.63;;;25.30;85.70;;;;;;4180337;28;20516;-72
2021/12/15 03:56:16;;;;;;;20.63;14.57;;;25.30;85.50;;;;;;4162671;28;20049;-73
2021/12/15 03:58:25;;;;;;;22.38;16.15;;;25.30;85.10;;;;;;4180514;28;20045;-73
2021/12/15 04:00:29;;;;;;;19.52;15.07;;;25.10;85.30;;;;;;4180524;28;20041;-73
2021/12/15 04:02:34;;;;;;;21.35;14.88;;;25.30;85.20;;;;;;4180424;28;20533;-73
2021/12/15 04:04:39;;;;;;;19.92;13.70;;;25.40;85.10;;;;;;4179879;28;20443;-73
2021/12/15 04:06:43;;;;;;;19.15;12.68;;;25.30;84.50;;;;;;4162322;28;20045;-74
2021/12/15 04:08:48;;;;;;;20.08;13.55;;;25.30;84.60;;;;;;4162612;28;20053;-74
2021/12/15 04:10:53;;;;;;;16.73;12.57;;;25.40;84.40;;;;;;4179876;28;20095;-72
2021/12/15 04:12:58;;;;;;;18.25;13.15;;;25.50;83.50;;;;;;4180339;28;20041;-67
2021/12/15 04:17:26;;;;;;;19.88;13.65;;;25.60;82.70;;;;;;4179590;28;20052;-74
2021/12/15 04:19:32;;;;;;;22.52;13.85;;;25.70;83.20;;;;;;4180041;28;20049;-72
2021/12/15 04:21:37;;;;;;;16.88;13.15;;;25.80;84.30;;;;;;4180110;28;20057;-72
2021/12/15 04:23:47;;;;;;;16.90;12.02;;;26.10;82.30;;;;;;4178827;28;20053;-72
2021/12/15 04:25:54;;;;;;;17.85;11.98;;;25.90;81.20;;;;;;4178780;28;20125;-72
2021/12/15 04:28:08;;;;;;;14.45;10.80;;;25.80;81.60;;;;;;4179777;28;20053;-70
2021/12/15 04:30:13;;;;;;;13.45;11.23;;;26.10;81.70;;;;;;4180025;28;20045;-70
2021/12/15 04:32:30;;;;;;;16.90;10.88;;;26.10;80.10;;;;;;4179846;28;20049;-71
2021/12/15 04:34:35;;;;;;;14.40;10.82;;;26.00;80.80;;;;;;4180007;28;20045;-70
2021/12/15 04:36:43;;;;;;;18.05;10.63;;;25.90;80.90;;;;;;4179645;28;20041;-71
2021/12/15 04:38:47;;;;;;;15.63;11.07;;;26.00;80.50;;;;;;4162109;28;20531;-71
2021/12/15 04:40:52;;;;;;;13.90;10.48;;;26.20;79.50;;;;;;4179696;28;20045;-71
2021/12/15 04:42:58;;;;;;;16.23;11.63;;;26.10;79.70;;;;;;4162066;28;20138;-71
2021/12/15 04:45:03;;;;;;;17.90;11.23;;;26.00;79.90;;;;;;4179419;28;20136;-71
2021/12/15 04:47:10;;;;;;;19.33;12.60;;;26.10;80.70;;;;;;4159069;28;20675;-71
2021/12/15 04:49:17;;;;;;;18.60;12.02;;;26.20;78.70;;;;;;4178918;28;20059;-71
2021/12/15 04:51:22;;;;;;;14.20;11.40;;;26.30;77.70;;;;;;4161473;28;20052;-71
2021/12/15 04:53:26;;;;;;;16.33;11.93;;;26.30;77.80;;;;;;4161708;28;20136;-71
2021/12/15 04:55:33;;;;;;;14.52;11.50;;;26.20;78.50;;;;;;4161818;28;20148;-71
2021/12/15 04:57:37;;;;;;;13.10;11.52;;;26.20;79.00;;;;;;4179697;28;20063;-71
2021/12/15 04:59:42;;;;;;;16.90;11.50;;;26.40;78.70;;;;;;4177677;28;20480;-72
2021/12/15 05:01:46;;;;;;;13.75;10.75;;;26.50;76.80;;;;;;4179161;28;20107;-70
2021/12/15 05:03:50;;;;;;;17.33;11.07;;;26.50;77.00;;;;;;4178666;28;20047;-70
2021/12/15 05:05:57;;;;;;;13.20;10.75;;;26.50;75.80;;;;;;4179141;28;20045;-70
2021/12/15 05:08:02;;;;;;;14.23;11.30;;;26.50;76.10;;;;;;4179264;28;20526;-70
2021/12/15 05:10:08;;;;;;;16.15;11.88;;;26.60;77.40;;;;;;4178989;28;20080;-70
2021/12/15 05:12:12;;;;;;;16.15;12.70;;;26.80;76.60;;;;;;4179303;28;20053;-70
2021/12/15 05:14:18;;;;;;;19.00;11.82;;;26.80;76.40;;;;;;4179277;28;20133;-70
2021/12/15 05:16:22;;;;;;;17.15;12.30;;;26.90;76.70;;;;;;4178920;28;20065;-70
2021/12/15 05:18:29;;;;;;;14.63;11.57;;;27.00;77.00;;;;;;4178437;28;20220;-70
2021/12/15 05:20:35;;;;;;;15.48;11.15;;;26.80;76.10;;;;;;4161645;28;20578;-70
2021/12/15 05:22:39;;;;;;;15.52;10.75;;;27.00;76.40;;;;;;4179247;28;20187;-71
2021/12/15 05:24:46;;;;;;;14.55;10.73;;;27.00;77.20;;;;;;4179037;28;20071;-71
2021/12/15 05:26:50;;;;;;;16.20;11.38;;;27.00;75.90;;;;;;4178627;28;20159;-70
2021/12/15 05:28:56;;;;;;;13.23;10.52;;;27.10;76.00;;;;;;4179243;28;20617;-70
2021/12/15 05:31:04;;;;;;;14.88;11.02;;;27.10;75.20;;;;;;4179300;28;20123;-70
2021/12/15 05:33:09;;;;;;;17.00;10.90;;;27.20;75.10;;;;;;4161543;28;20060;-70
2021/12/15 05:35:20;;;;;;;12.43;10.25;;;27.20;74.60;;;;;;4179147;28;20424;-71
2021/12/15 05:37:27;;;;;;;11.48;9.75;;;27.20;73.70;;;;;;4179195;28;20139;-71
2021/12/15 05:39:31;;;;;;;18.63;10.75;;;27.30;73.30;;;;;;4178698;28;20040;-69
2021/12/15 05:41:36;;;;;;;11.73;10.10;;;27.30;74.40;;;;;;4161322;28;20048;-71
2021/12/15 05:43:40;;;;;;;18.63;10.73;;;27.30;74.00;;;;;;4162374;28;20038;-71
2021/12/15 05:45:47;;;;;;;13.52;10.00;;;27.30;74.20;;;;;;4162450;28;20136;-71
2021/12/15 05:47:52;;;;;;;17.90;10.90;;;27.30;73.90;;;;;;4168715;28;20396;-71
2021/12/15 05:49:57;;;;;;;14.68;10.95;;;27.30;74.30;;;;;;4178606;28;20045;-70
2021/12/15 05:52:01;;;;;;;13.20;10.45;;;27.30;74.70;;;;;;4178626;28;20075;-70
2021/12/15 05:54:06;;;;;;;15.57;11.23;;;27.40;74.50;;;;;;4178688;28;20136;-71
2021/12/15 05:56:15;;;;;;;15.00;10.02;;;27.30;74.70;;;;;;4178407;28;20260;-71
2021/12/15 05:58:19;;;;;;;13.77;10.13;;;27.30;74.00;;;;;;4178676;28;20409;-69
2021/12/15 06:00:26;;;;;;;13.05;9.50;;;27.40;74.20;;;;;;4178493;28;20041;-70
2021/12/15 06:02:31;;;;;;;17.48;10.23;;;27.60;74.00;;;;;;4178075;28;20098;-70
2021/12/15 06:04:35;;;;;;;11.63;9.60;;;27.50;74.20;;;;;;4178625;28;20033;-70
2021/12/15 06:06:40;;;;;;;13.00;9.75;;;27.50;73.20;;;;;;4178494;28;20037;-71
2021/12/15 06:08:44;;;;;;;15.18;10.25;;;27.50;73.50;;;;;;4178142;28;20068;-70
2021/12/15 06:10:50;;;;;;;11.90;9.10;;;27.60;74.70;;;;;;4167430;28;20547;-70
2021/12/15 06:12:55;;;;;;;12.98;9.45;;;27.50;73.10;;;;;;4144507;28;20076;-69
2021/12/15 06:15:00;;;;;;;11.95;9.13;;;27.50;72.90;;;;;;4178542;28;20045;-70
2021/12/15 06:17:11;;;;;;;13.35;8.85;;;27.60;72.50;;;;;;4161888;28;20061;-70
2021/12/15 06:19:15;;;;;;;13.75;9.43;;;27.70;72.20;;;;;;4161748;28;20183;-70
2021/12/15 06:21:20;;;;;;;42.95;10.50;;;27.70;72.10;;;;;;4161898;28;20053;-70
2021/12/15 06:23:25;;;;;;;17.83;9.57;;;27.70;72.20;;;;;;4171748;28;20049;-70
2021/12/15 06:25:29;;;;;;;15.77;8.70;;;27.70;73.20;;;;;;4178087;28;20052;-70
2021/12/15 06:27:36;;;;;;;12.48;8.95;;;27.90;72.10;;;;;;4178608;28;20045;-70
2021/12/15 06:29:41;;;;;;;12.70;9.32;;;27.90;72.40;;;;;;4160639;28;20045;-70
2021/12/15 06:31:45;;;;;;;11.75;8.57;;;27.80;72.00;;;;;;4160781;28;20057;-70
2021/12/15 06:33:50;;;;;;;11.75;7.57;;;27.80;71.40;;;;;;4178100;28;20059;-70
2021/12/15 06:35:57;;;;;;;15.18;9.05;;;27.80;71.70;;;;;;4177819;28;20389;-70
2021/12/15 06:38:01;;;;;;;13.50;9.05;;;27.90;71.70;;;;;;4178434;28;20049;-70
2021/12/15 06:40:08;;;;;;;12.45;7.55;;;27.80;71.30;;;;;;4181139;28;20053;-70
2021/12/15 06:42:12;;;;;;;10.55;8.15;;;27.80;72.00;;;;;;4181355;28;20039;-70
2021/12/15 06:44:16;;;;;;;9.77;8.73;;;27.80;72.30;;;;;;4181215;28;20144;-70
2021/12/15 07:00:09;;;;;;;11.70;9.07;;;28.10;72.70;;;;;;4163230;28;20133;-70
2021/12/15 07:02:13;;;;;;;10.68;8.80;;;28.00;72.70;;;;;;4145130;28;20065;-70
2021/12/15 07:04:21;;;;;;;13.90;9.38;;;28.00;72.80;;;;;;4171511;28;20049;-69
2021/12/15 07:06:30;;;;;;;12.20;9.25;;;27.90;72.20;;;;;;4178631;28;20056;-71
2021/12/15 07:08:36;;;;;;;11.35;9.15;;;27.90;72.70;;;;;;4178386;28;20461;-71
2021/12/15 07:10:43;;;;;;;18.33;9.38;;;28.00;73.30;;;;;;4178600;28;20087;-71
2021/12/15 07:12:48;;;;;;;13.68;10.45;;;28.20;72.50;;;;;;4178825;28;20049;-70
2021/12/15 07:14:53;;;;;;;19.80;10.90;;;28.10;72.80;;;;;;4178399;28;20052;-71
2021/12/15 07:16:58;;;;;;;12.13;10.10;;;28.10;72.80;;;;;;4178287;28;20063;-71
2021/12/15 07:19:10;;;;;;;15.25;10.13;;;28.10;72.70;;;;;;4178104;28;20829;-71
2021/12/15 07:21:19;;;;;;;16.10;9.30;;;28.10;72.50;;;;;;4178498;28;20053;-71
2021/12/15 07:23:23;;;;;;;14.45;9.68;;;28.10;72.70;;;;;;4177333;28;20045;-71
2021/12/15 07:25:30;;;;;;;12.93;9.57;;;28.20;72.40;;;;;;4177961;28;20033;-71
2021/12/15 07:27:35;;;;;;;13.68;9.23;;;28.20;72.20;;;;;;4178164;28;20073;-71
2021/12/15 07:29:39;;;;;;;14.35;9.10;;;28.20;72.10;;;;;;4175179;28;20451;-71
2021/12/15 07:31:44;;;;;;;13.48;9.10;;;28.20;72.20;;;;;;4163504;28;20053;-70
2021/12/15 07:33:48;;;;;;;16.10;8.88;;;28.20;71.90;;;;;;4180849;28;20045;-70
2021/12/15 07:35:53;;;;;;;12.52;9.35;;;28.40;72.50;;;;;;4180327;28;20052;-70
2021/12/15 07:37:57;;;;;;;12.32;8.48;;;28.40;72.00;;;;;;4180241;28;20419;-70
2021/12/15 07:40:04;;;;;;;15.68;9.35;;;28.30;71.50;;;;;;4179462;28;20037;-70
2021/12/15 07:42:12;;;;;;;12.55;8.88;;;28.30;71.60;;;;;;4178151;28;20399;-69
2021/12/15 07:44:17;;;;;;;10.88;9.27;;;28.40;71.70;;;;;;4180366;28;20049;-71
2021/12/15 07:46:23;;;;;;;14.88;9.38;;;28.40;71.60;;;;;;4175353;28;20373;-71
2021/12/15 07:48:29;;;;;;;14.05;9.55;;;28.40;71.50;;;;;;4177644;28;20049;-71
2021/12/15 07:50:34;;;;;;;11.75;9.32;;;28.30;71.60;;;;;;4159096;28;20575;-69
2021/12/15 07:52:38;;;;;;;15.55;10.40;;;28.40;71.20;;;;;;4157670;28;20527;-70
2021/12/15 07:54:42;;;;;;;12.57;9.25;;;28.30;71.20;;;;;;4177622;28;20041;-71
2021/12/15 07:56:47;;;;;;;13.55;9.27;;;28.30;71.90;;;;;;4159803;28;20065;-70
2021/12/15 07:58:51;;;;;;;16.13;10.32;;;28.30;72.00;;;;;;4177386;28;20131;-70
2021/12/15 08:00:59;;;;;;;21.08;10.50;;;28.30;71.90;;;;;;4182778;28;20349;-69
2021/12/15 08:03:05;;;;;;;15.30;10.00;;;28.30;72.80;;;;;;4175637;28;20269;-70
2021/12/15 08:05:09;;;;;;;15.68;9.15;;;28.30;71.70;;;;;;4143596;28;20046;-71
2021/12/15 08:07:15;;;;;;;11.35;8.95;;;28.30;71.60;;;;;;4176506;28;20041;-70
2021/12/15 08:09:22;;;;;;;13.23;8.65;;;28.30;71.30;;;;;;4174856;28;20613;-71
2021/12/15 08:11:26;;;;;;;16.83;9.52;;;28.30;71.20;;;;;;4177820;28;20045;-70
2021/12/15 08:13:32;;;;;;;12.80;10.35;;;28.40;71.50;;;;;;4177581;28;20060;-70
2021/12/15 08:15:38;;;;;;;27.60;18.85;;;28.40;71.10;;;;;;4160007;28;20049;-70
2021/12/15 08:17:42;;;;;;;18.98;16.67;;;28.50;71.30;;;;;;4177409;28;20053;-71
2021/12/15 08:19:47;;;;;;;18.75;11.05;;;28.40;71.70;;;;;;4177845;28;20045;-71
2021/12/15 08:21:52;;;;;;;15.57;9.48;;;28.50;71.50;;;;;;4177456;28;20427;-71
2021/12/15 08:23:57;;;;;;;11.25;9.43;;;28.50;70.80;;;;;;4160290;28;20046;-71
2021/12/15 08:26:01;;;;;;;13.85;9.85;;;28.40;71.30;;;;;;4160068;28;20132;-70
2021/12/15 08:28:07;;;;;;;14.77;9.55;;;28.40;71.40;;;;;;4177050;28;20086;-69
2021/12/15 08:30:19;;;;;;;11.18;8.50;;;28.40;71.10;;;;;;4177416;28;20057;-70
2021/12/15 08:32:23;;;;;;;14.50;9.52;;;28.30;71.30;;;;;;4177209;28;20404;-69
2021/12/15 08:34:28;;;;;;;13.82;8.90;;;28.30;72.00;;;;;;4176759;28;20040;-69
2021/12/15 08:36:33;;;;;;;13.73;9.68;;;28.30;71.40;;;;;;4176925;28;20041;-69
2021/12/15 08:38:38;;;;;;;14.95;10.93;;;28.30;70.80;;;;;;4176632;28;20063;-69
2021/12/15 08:40:43;;;;;;;14.10;10.18;;;28.40;71.00;;;;;;4176834;28;20539;-70
2021/12/15 08:42:48;;;;;;;13.75;9.55;;;28.50;70.60;;;;;;4174638;28;20071;-70
2021/12/15 08:44:52;;;;;;;13.88;9.80;;;28.50;70.70;;;;;;4176792;28;20265;-70
2021/12/15 08:46:57;;;;;;;14.45;10.20;;;28.50;70.70;;;;;;4176455;28;20402;-69
2021/12/15 08:49:02;;;;;;;11.98;9.23;;;28.40;71.00;;;;;;4176095;28;20045;-69
2021/12/15 08:51:07;;;;;;;12.50;9.07;;;28.40;70.30;;;;;;4176823;28;20107;-70
2021/12/15 08:53:12;;;;;;;11.95;8.80;;;28.30;70.30;;;;;;4176464;28;20386;-70
2021/12/15 08:55:17;;;;;;;13.68;9.35;;;28.30;70.60;;;;;;4177135;28;20045;-70
2021/12/15 08:57:21;;;;;;;12.60;8.60;;;28.30;70.90;;;;;;4159170;28;20566;-70
2021/12/15 08:59:27;;;;;;;15.50;9.27;;;28.30;71.50;;;;;;4176364;28;20414;-71
2021/12/15 09:01:31;;;;;;;10.65;8.70;;;28.30;70.90;;;;;;4176638;28;20377;-69
2021/12/15 09:03:38;;;;;;;11.50;9.18;;;28.40;70.10;;;;;;4176332;28;20415;-69
2021/12/15 09:05:42;;;;;;;11.65;8.93;;;28.30;70.10;;;;;;4176412;28;20045;-70
2021/12/15 09:07:49;;;;;;;15.98;11.32;;;28.40;70.00;;;;;;4177027;28;20064;-70
2021/12/15 09:09:54;;;;;;;12.00;8.57;;;28.50;70.00;;;;;;4176336;28;20567;-69
2021/12/15 09:11:58;;;;;;;11.38;7.55;;;28.40;70.00;;;;;;4176390;28;20193;-67
2021/12/15 09:14:03;;;;;;;14.13;8.13;;;28.50;69.70;;;;;;4176572;28;20140;-69
2021/12/15 09:16:09;;;;;;;19.30;9.93;;;28.40;70.40;;;;;;4176152;28;20056;-69
2021/12/15 09:18:13;;;;;;;13.85;8.80;;;28.40;70.60;;;;;;4176624;28;20079;-70
2021/12/15 09:20:20;;;;;;;15.52;8.20;;;28.40;69.60;;;;;;4176213;28;20052;-70
2021/12/15 09:22:24;;;;;;;14.65;8.90;;;28.40;69.50;;;;;;4176515;28;20076;-69
2021/12/15 09:24:28;;;;;;;13.65;9.43;;;28.30;69.70;;;;;;4175946;28;20052;-69
2021/12/15 09:26:33;;;;;;;13.55;9.07;;;28.30;69.80;;;;;;4160283;28;20049;-69
2021/12/15 09:28:37;;;;;;;16.92;11.13;;;28.30;70.30;;;;;;4142761;28;20156;-70
2021/12/15 09:30:46;;;;;;;16.13;10.38;;;28.30;70.10;;;;;;4169996;28;20045;-69
2021/12/15 09:32:51;;;;;;;11.88;9.38;;;28.30;70.30;;;;;;4176304;28;20524;-69
2021/12/15 09:34:55;;;;;;;13.68;9.68;;;28.30;69.50;;;;;;4176048;28;20143;-68
2021/12/15 09:37:02;;;;;;;14.10;10.20;;;28.30;69.60;;;;;;4158847;28;20078;-68
2021/12/15 09:39:10;;;;;;;14.20;9.70;;;28.30;69.00;;;;;;4176559;28;20072;-68
2021/12/15 09:41:16;;;;;;;14.02;9.77;;;28.30;69.30;;;;;;4175874;28;20041;-68
2021/12/15 09:43:21;;;;;;;18.02;10.02;;;28.30;69.80;;;;;;4176435;28;20569;-69
2021/12/15 09:45:41;;;;;;;19.77;10.43;;;28.20;70.00;;;;;;4175685;28;20124;-69
2021/12/15 09:48:02;;;;;;;17.27;12.93;;;28.20;69.90;;;;;;4174057;28;20486;-70
2021/12/15 10:04:14;;;;;;;14.23;8.70;;;27.90;70.80;;;;;;4173576;28;20423;-71
2021/12/15 10:11:10;;;;;;;15.52;9.80;;;27.90;72.20;;;;;;4142001;28;20575;-71
2021/12/15 10:17:47;;;;;;;18.58;11.52;;;27.80;71.80;;;;;;4176091;28;20175;-70
2021/12/15 10:19:51;;;;;;;17.88;11.88;;;27.80;71.90;;;;;;4175447;28;20258;-71
2021/12/15 10:22:10;;;;;;;19.27;13.15;;;27.80;71.90;;;;;;4175061;28;20128;-71
2021/12/15 10:24:14;;;;;;;19.75;11.82;;;27.70;72.30;;;;;;4176058;28;20048;-71
2021/12/15 10:26:19;;;;;;;20.27;12.85;;;27.70;72.60;;;;;;4169856;28;20041;-71
2021/12/15 10:28:25;;;;;;;20.45;11.52;;;27.70;73.20;;;;;;4174133;28;20045;-72
2021/12/15 10:30:53;;;;;;;20.38;11.63;;;27.60;73.40;;;;;;4172778;28;20056;-70
2021/12/15 10:33:24;;;;;;;18.65;10.88;;;27.60;73.60;;;;;;4172660;28;20041;-70
2021/12/15 10:35:37;;;;;;;21.88;11.90;;;27.50;73.50;;;;;;4174520;28;20107;-70
2021/12/15 10:37:42;;;;;;;25.45;12.13;;;27.50;74.10;;;;;;4173094;28;20068;-71
2021/12/15 10:40:20;;;;;;;22.77;11.65;;;27.50;74.90;;;;;;4174705;28;20115;-70
2021/12/15 10:42:31;;;;;;;22.50;12.38;;;27.40;75.60;;;;;;4173300;28;20172;-71
2021/12/15 10:44:35;;;;;;;28.27;14.27;;;27.40;76.20;;;;;;4168658;28;20075;-71
2021/12/15 10:46:43;;;;;;;33.13;14.25;;;27.40;76.30;;;;;;4174467;28;20051;-71
2021/12/15 10:48:54;;;;;;;24.13;14.23;;;27.30;76.50;;;;;;4170775;28;20044;-71
2021/12/15 10:50:59;;;;;;;26.48;14.68;;;27.30;76.90;;;;;;4152777;28;20084;-71
2021/12/15 10:53:03;;;;;;;31.55;16.60;;;27.30;77.20;;;;;;4154427;28;20130;-71
2021/12/15 10:55:08;;;;;;;33.10;15.90;;;27.30;77.40;;;;;;4174260;28;20309;-72
2021/12/15 10:57:28;;;;;;;35.88;16.30;;;27.30;77.80;;;;;;4172158;28;20061;-73
2021/12/15 10:59:35;;;;;;;31.48;16.52;;;27.20;78.00;;;;;;4174520;28;20049;-72
2021/12/15 11:01:45;;;;;;;35.33;21.08;;;27.20;78.40;;;;;;4173439;28;20033;-71
2021/12/15 11:03:50;;;;;;;51.28;23.65;;;27.10;78.60;;;;;;4154265;28;20432;-71
2021/12/15 11:05:54;;;;;;;48.28;24.38;;;27.10;78.80;;;;;;4154307;28;20120;-71
2021/12/15 11:07:59;;;;;;;49.28;27.02;;;27.10;79.20;;;;;;4170832;28;20443;-70
2021/12/15 11:10:12;;;;;;;55.40;30.15;;;27.00;79.40;;;;;;4174839;28;20045;-70
2021/12/15 11:12:19;;;;;;;59.13;30.23;;;27.00;79.70;;;;;;4170952;28;20046;-71
2021/12/15 11:14:31;;;;;;;59.22;30.52;;;27.00;80.00;;;;;;4174616;28;20052;-71
2021/12/15 11:16:36;;;;;;;57.13;30.77;;;27.00;79.90;;;;;;4176540;28;20143;-71
2021/12/15 11:18:40;;;;;;;51.95;27.95;;;27.00;79.80;;;;;;4174909;28;20480;-71
2021/12/15 11:20:51;;;;;;;55.28;27.58;;;26.90;80.00;;;;;;4174976;28;20045;-71
2021/12/15 11:23:10;;;;;;;62.47;29.52;;;26.90;80.20;;;;;;4168255;28;20045;-73
2021/12/15 11:25:37;;;;;;;56.42;27.58;;;26.90;80.40;;;;;;4158735;28;20473;-72
2021/12/15 11:27:41;;;;;;;47.67;26.80;;;26.90;80.40;;;;;;4167132;28;20044;-73
2021/12/15 11:29:46;;;;;;;63.28;31.75;;;26.90;80.30;;;;;;4181968;28;20329;-70
2021/12/15 11:31:50;;;;;;;54.88;31.85;;;26.80;80.30;;;;;;4178248;28;20354;-73
2021/12/15 11:34:00;;;;;;;66.88;34.53;;;26.80;80.30;;;;;;4177762;28;20067;-73
2021/12/15 11:36:09;;;;;;;68.47;34.65;;;26.80;80.40;;;;;;4144116;28;20053;-72
2021/12/15 11:38:24;;;;;;;61.55;34.75;;;26.80;80.70;;;;;;4161335;28;20049;-73
2021/12/15 11:40:35;;;;;;;65.05;34.17;;;26.70;80.70;;;;;;4168798;28;20503;-73
2021/12/15 11:42:43;;;;;;;62.17;36.53;;;26.70;80.90;;;;;;4169765;28;20037;-72
2021/12/15 11:44:47;;;;;;;65.80;38.30;;;26.70;81.00;;;;;;4173034;28;20503;-72
2021/12/15 11:46:55;;;;;;;61.97;38.90;;;26.60;81.00;;;;;;4175648;28;20412;-73
2021/12/15 11:49:23;;;;;;;63.22;36.38;;;26.60;81.20;;;;;;4170684;28;20518;-72
2021/12/15 11:51:44;;;;;;;61.03;35.38;;;26.60;81.50;;;;;;4173790;28;20052;-74
2021/12/15 11:53:49;;;;;;;61.85;34.17;;;26.60;81.80;;;;;;4151897;28;20311;-74
2021/12/15 11:55:53;;;;;;;61.85;34.10;;;26.50;82.10;;;;;;4180779;28;20159;-73